sensor_id;sensor_type;location;lat;lon;timestamp;pressure;altitude;pressure_sealevel;temperature
8362;BMP180;4218;48.326;14.304;2023-01-26T00:01:26;98851.00;;;1.60
8362;BMP180;4218;48.326;14.304;2023-01-26T00:03:55;98833.00;;;1.50
8362;BMP180;4218;48.326;14.304;2023-01-26T00:06:22;98839.00;;;1.60
8362;BMP180;4218;48.326;14.304;2023-01-26T00:08:54;98842.00;;;1.50
8362;BMP180;4218;48.326;14.304;2023-01-26T00:11:31;98835.00;;;1.50
8362;BMP180;4218;48.326;14.304;2023-01-26T00:13:59;98822.00;;;1.60
8362;BMP180;4218;48.326;14.304;2023-01-26T00:16:27;98839.00;;;1.60
8362;BMP180;4218;48.326;14.304;2023-01-26T00:18:52;98820.00;;;1.60
8362;BMP180;4218;48.326;14.304;2023-01-26T00:21:21;98835.00;;;1.70
8362;BMP180;4218;48.326;14.304;2023-01-26T00:23:48;98834.00;;;1.70
8362;BMP180;4218;48.326;14.304;2023-01-26T00:26:19;98819.00;;;1.70
8362;BMP180;4218;48.326;14.304;2023-01-26T00:28:48;98822.00;;;1.60
8362;BMP180;4218;48.326;14.304;2023-01-26T00:31:17;98824.00;;;1.40
8362;BMP180;4218;48.326;14.304;2023-01-26T00:33:45;98821.00;;;1.40
8362;BMP180;4218;48.326;14.304;2023-01-26T00:36:11;98810.00;;;1.20
8362;BMP180;4218;48.326;14.304;2023-01-26T00:38:40;98804.00;;;1.40
8362;BMP180;4218;48.326;14.304;2023-01-26T00:41:07;98812.00;;;1.40
8362;BMP180;4218;48.326;14.304;2023-01-26T00:43:33;98798.00;;;1.40
8362;BMP180;4218;48.326;14.304;2023-01-26T00:46:00;98806.00;;;1.40
8362;BMP180;4218;48.326;14.304;2023-01-26T00:48:29;98802.00;;;1.40
8362;BMP180;4218;48.326;14.304;2023-01-26T00:50:56;98808.00;;;1.20
8362;BMP180;4218;48.326;14.304;2023-01-26T00:53:26;98803.00;;;1.30
8362;BMP180;4218;48.326;14.304;2023-01-26T00:55:52;98804.00;;;1.30
8362;BMP180;4218;48.326;14.304;2023-01-26T00:58:21;98803.00;;;1.30
8362;BMP180;4218;48.326;14.304;2023-01-26T01:00:46;98806.00;;;1.40
8362;BMP180;4218;48.326;14.304;2023-01-26T01:03:14;98810.00;;;1.30
8362;BMP180;4218;48.326;14.304;2023-01-26T01:05:43;98802.00;;;1.40
8362;BMP180;4218;48.326;14.304;2023-01-26T01:08:14;98807.00;;;1.50
8362;BMP180;4218;48.326;14.304;2023-01-26T01:10:40;98815.00;;;1.40
8362;BMP180;4218;48.326;14.304;2023-01-26T01:13:09;98803.00;;;1.40
8362;BMP180;4218;48.326;14.304;2023-01-26T01:15:39;98801.00;;;1.40
8362;BMP180;4218;48.326;14.304;2023-01-26T01:18:05;98812.00;;;1.50
8362;BMP180;4218;48.326;14.304;2023-01-26T01:20:31;98814.00;;;1.40
8362;BMP180;4218;48.326;14.304;2023-01-26T01:23:05;98806.00;;;1.30
8362;BMP180;4218;48.326;14.304;2023-01-26T01:25:31;98804.00;;;1.40
8362;BMP180;4218;48.326;14.304;2023-01-26T01:27:59;98803.00;;;1.40
8362;BMP180;4218;48.326;14.304;2023-01-26T01:30:26;98794.00;;;1.30
8362;BMP180;4218;48.326;14.304;2023-01-26T01:32:51;98797.00;;;1.50
8362;BMP180;4218;48.326;14.304;2023-01-26T01:35:17;98782.00;;;1.50
8362;BMP180;4218;48.326;14.304;2023-01-26T01:37:45;98803.00;;;1.50
8362;BMP180;4218;48.326;14.304;2023-01-26T01:40:17;98792.00;;;1.40
8362;BMP180;4218;48.326;14.304;2023-01-26T01:42:47;98788.00;;;1.40
8362;BMP180;4218;48.326;14.304;2023-01-26T01:45:38;98787.00;;;1.40
8362;BMP180;4218;48.326;14.304;2023-01-26T01:48:10;98791.00;;;1.50
8362;BMP180;4218;48.326;14.304;2023-01-26T01:50:40;98794.00;;;1.40
8362;BMP180;4218;48.326;14.304;2023-01-26T01:53:16;98780.00;;;1.40
8362;BMP180;4218;48.326;14.304;2023-01-26T01:55:44;98797.00;;;1.40
8362;BMP180;4218;48.326;14.304;2023-01-26T01:58:10;98793.00;;;1.30
8362;BMP180;4218;48.326;14.304;2023-01-26T02:00:36;98797.00;;;1.30
8362;BMP180;4218;48.326;14.304;2023-01-26T02:03:14;98796.00;;;1.40
8362;BMP180;4218;48.326;14.304;2023-01-26T02:08:45;98783.00;;;1.30
8362;BMP180;4218;48.326;14.304;2023-01-26T02:14:16;98772.00;;;1.40
8362;BMP180;4218;48.326;14.304;2023-01-26T02:16:42;98766.00;;;1.30
8362;BMP180;4218;48.326;14.304;2023-01-26T02:19:16;98771.00;;;1.20
8362;BMP180;4218;48.326;14.304;2023-01-26T02:21:44;98763.00;;;1.20
8362;BMP180;4218;48.326;14.304;2023-01-26T02:24:20;98746.00;;;1.30
8362;BMP180;4218;48.326;14.304;2023-01-26T02:26:48;98765.00;;;1.30
8362;BMP180;4218;48.326;14.304;2023-01-26T02:29:13;98753.00;;;1.20
8362;BMP180;4218;48.326;14.304;2023-01-26T02:31:41;98756.00;;;1.30
8362;BMP180;4218;48.326;14.304;2023-01-26T02:34:08;98749.00;;;1.20
8362;BMP180;4218;48.326;14.304;2023-01-26T02:36:33;98755.00;;;1.20
8362;BMP180;4218;48.326;14.304;2023-01-26T02:41:59;98737.00;;;1.20
8362;BMP180;4218;48.326;14.304;2023-01-26T02:44:43;98726.00;;;1.20
8362;BMP180;4218;48.326;14.304;2023-01-26T02:47:13;98735.00;;;1.30
8362;BMP180;4218;48.326;14.304;2023-01-26T02:49:41;98746.00;;;1.20
8362;BMP180;4218;48.326;14.304;2023-01-26T02:52:21;98722.00;;;1.30
8362;BMP180;4218;48.326;14.304;2023-01-26T02:54:52;98722.00;;;1.10
8362;BMP180;4218;48.326;14.304;2023-01-26T02:57:37;98729.00;;;1.30
8362;BMP180;4218;48.326;14.304;2023-01-26T03:00:04;98729.00;;;1.10
8362;BMP180;4218;48.326;14.304;2023-01-26T03:02:31;98720.00;;;1.20
8362;BMP180;4218;48.326;14.304;2023-01-26T03:04:56;98732.00;;;1.10
8362;BMP180;4218;48.326;14.304;2023-01-26T03:07:25;98737.00;;;1.10
8362;BMP180;4218;48.326;14.304;2023-01-26T03:09:51;98732.00;;;1.20
8362;BMP180;4218;48.326;14.304;2023-01-26T03:12:18;98713.00;;;1.10
8362;BMP180;4218;48.326;14.304;2023-01-26T03:14:47;98726.00;;;1.00
8362;BMP180;4218;48.326;14.304;2023-01-26T03:17:32;98724.00;;;1.00
8362;BMP180;4218;48.326;14.304;2023-01-26T03:19:59;98724.00;;;1.10
8362;BMP180;4218;48.326;14.304;2023-01-26T03:22:45;98727.00;;;1.10
8362;BMP180;4218;48.326;14.304;2023-01-26T03:25:37;98729.00;;;0.90
8362;BMP180;4218;48.326;14.304;2023-01-26T03:28:21;98723.00;;;0.90
8362;BMP180;4218;48.326;14.304;2023-01-26T03:30:48;98715.00;;;0.80
8362;BMP180;4218;48.326;14.304;2023-01-26T03:33:15;98721.00;;;0.90
8362;BMP180;4218;48.326;14.304;2023-01-26T03:35:42;98717.00;;;0.90
8362;BMP180;4218;48.326;14.304;2023-01-26T03:38:08;98723.00;;;0.80
8362;BMP180;4218;48.326;14.304;2023-01-26T03:40:34;98716.00;;;0.80
8362;BMP180;4218;48.326;14.304;2023-01-26T03:43:19;98706.00;;;0.90
8362;BMP180;4218;48.326;14.304;2023-01-26T03:46:04;98715.00;;;0.70
8362;BMP180;4218;48.326;14.304;2023-01-26T03:48:48;98714.00;;;1.00
8362;BMP180;4218;48.326;14.304;2023-01-26T03:51:32;98719.00;;;0.80
8362;BMP180;4218;48.326;14.304;2023-01-26T03:54:17;98713.00;;;0.80
8362;BMP180;4218;48.326;14.304;2023-01-26T03:57:05;98706.00;;;0.90
8362;BMP180;4218;48.326;14.304;2023-01-26T03:59:33;98702.00;;;1.00
8362;BMP180;4218;48.326;14.304;2023-01-26T04:02:08;98701.00;;;0.90
8362;BMP180;4218;48.326;14.304;2023-01-26T04:04:52;98708.00;;;0.80
8362;BMP180;4218;48.326;14.304;2023-01-26T04:07:37;98694.00;;;0.80
8362;BMP180;4218;48.326;14.304;2023-01-26T04:10:21;98696.00;;;0.80
8362;BMP180;4218;48.326;14.304;2023-01-26T04:12:48;98701.00;;;0.80
8362;BMP180;4218;48.326;14.304;2023-01-26T04:15:35;98711.00;;;0.80
8362;BMP180;4218;48.326;14.304;2023-01-26T04:18:20;98702.00;;;0.80
8362;BMP180;4218;48.326;14.304;2023-01-26T04:21:04;98690.00;;;0.90
8362;BMP180;4218;48.326;14.304;2023-01-26T04:23:55;98705.00;;;0.80
8362;BMP180;4218;48.326;14.304;2023-01-26T04:26:23;98680.00;;;0.80
8362;BMP180;4218;48.326;14.304;2023-01-26T04:28:48;98697.00;;;0.80
8362;BMP180;4218;48.326;14.304;2023-01-26T04:31:14;98683.00;;;0.90
8362;BMP180;4218;48.326;14.304;2023-01-26T04:33:43;98682.00;;;0.90
8362;BMP180;4218;48.326;14.304;2023-01-26T04:36:10;98685.00;;;0.80
8362;BMP180;4218;48.326;14.304;2023-01-26T04:38:36;98673.00;;;0.70
8362;BMP180;4218;48.326;14.304;2023-01-26T04:41:02;98670.00;;;0.70
8362;BMP180;4218;48.326;14.304;2023-01-26T04:43:28;98671.00;;;0.60
8362;BMP180;4218;48.326;14.304;2023-01-26T04:46:01;98684.00;;;0.50
8362;BMP180;4218;48.326;14.304;2023-01-26T04:48:31;98682.00;;;0.60
8362;BMP180;4218;48.326;14.304;2023-01-26T04:51:03;98676.00;;;0.70
8362;BMP180;4218;48.326;14.304;2023-01-26T04:53:32;98674.00;;;0.60
8362;BMP180;4218;48.326;14.304;2023-01-26T04:55:58;98663.00;;;0.70
8362;BMP180;4218;48.326;14.304;2023-01-26T04:58:27;98668.00;;;0.60
8362;BMP180;4218;48.326;14.304;2023-01-26T05:00:57;98674.00;;;0.60
8362;BMP180;4218;48.326;14.304;2023-01-26T05:03:24;98660.00;;;0.60
8362;BMP180;4218;48.326;14.304;2023-01-26T05:05:51;98668.00;;;0.80
8362;BMP180;4218;48.326;14.304;2023-01-26T05:08:22;98660.00;;;0.80
8362;BMP180;4218;48.326;14.304;2023-01-26T05:10:48;98656.00;;;0.80
8362;BMP180;4218;48.326;14.304;2023-01-26T05:13:17;98661.00;;;0.50
8362;BMP180;4218;48.326;14.304;2023-01-26T05:15:43;98658.00;;;0.50
8362;BMP180;4218;48.326;14.304;2023-01-26T05:18:10;98658.00;;;0.70
8362;BMP180;4218;48.326;14.304;2023-01-26T05:20:35;98650.00;;;0.50
8362;BMP180;4218;48.326;14.304;2023-01-26T05:23:03;98658.00;;;0.60
8362;BMP180;4218;48.326;14.304;2023-01-26T05:25:31;98664.00;;;0.60
8362;BMP180;4218;48.326;14.304;2023-01-26T05:27:57;98666.00;;;0.60
8362;BMP180;4218;48.326;14.304;2023-01-26T05:30:22;98659.00;;;0.70
8362;BMP180;4218;48.326;14.304;2023-01-26T05:32:48;98665.00;;;0.70
8362;BMP180;4218;48.326;14.304;2023-01-26T05:35:14;98669.00;;;0.70
8362;BMP180;4218;48.326;14.304;2023-01-26T05:37:39;98660.00;;;0.60
8362;BMP180;4218;48.326;14.304;2023-01-26T05:40:14;98662.00;;;0.60
8362;BMP180;4218;48.326;14.304;2023-01-26T05:42:44;98681.00;;;0.80
8362;BMP180;4218;48.326;14.304;2023-01-26T05:45:10;98670.00;;;1.00
8362;BMP180;4218;48.326;14.304;2023-01-26T05:47:36;98668.00;;;1.00
8362;BMP180;4218;48.326;14.304;2023-01-26T05:50:02;98671.00;;;1.00
8362;BMP180;4218;48.326;14.304;2023-01-26T05:52:28;98656.00;;;0.80
8362;BMP180;4218;48.326;14.304;2023-01-26T05:54:53;98674.00;;;0.70
8362;BMP180;4218;48.326;14.304;2023-01-26T05:57:19;98660.00;;;0.60
8362;BMP180;4218;48.326;14.304;2023-01-26T05:59:45;98661.00;;;0.50
8362;BMP180;4218;48.326;14.304;2023-01-26T06:02:11;98655.00;;;0.60
8362;BMP180;4218;48.326;14.304;2023-01-26T06:04:37;98670.00;;;0.50
8362;BMP180;4218;48.326;14.304;2023-01-26T06:07:02;98674.00;;;0.60
8362;BMP180;4218;48.326;14.304;2023-01-26T06:09:28;98661.00;;;0.70
8362;BMP180;4218;48.326;14.304;2023-01-26T06:12:16;98673.00;;;0.80
8362;BMP180;4218;48.326;14.304;2023-01-26T06:14:43;98669.00;;;0.80
8362;BMP180;4218;48.326;14.304;2023-01-26T06:17:16;98665.00;;;0.80
8362;BMP180;4218;48.326;14.304;2023-01-26T06:19:42;98671.00;;;0.90
8362;BMP180;4218;48.326;14.304;2023-01-26T06:22:10;98670.00;;;0.80
8362;BMP180;4218;48.326;14.304;2023-01-26T06:24:35;98663.00;;;0.70
8362;BMP180;4218;48.326;14.304;2023-01-26T06:27:01;98661.00;;;0.70
8362;BMP180;4218;48.326;14.304;2023-01-26T06:29:27;98657.00;;;0.80
8362;BMP180;4218;48.326;14.304;2023-01-26T06:31:52;98660.00;;;0.90
8362;BMP180;4218;48.326;14.304;2023-01-26T06:34:18;98668.00;;;0.90
8362;BMP180;4218;48.326;14.304;2023-01-26T06:36:45;98654.00;;;0.90
8362;BMP180;4218;48.326;14.304;2023-01-26T06:39:12;98670.00;;;0.80
8362;BMP180;4218;48.326;14.304;2023-01-26T06:41:39;98675.00;;;0.70
8362;BMP180;4218;48.326;14.304;2023-01-26T06:44:05;98659.00;;;0.60
8362;BMP180;4218;48.326;14.304;2023-01-26T06:46:33;98648.00;;;0.60
8362;BMP180;4218;48.326;14.304;2023-01-26T06:49:01;98650.00;;;0.70
8362;BMP180;4218;48.326;14.304;2023-01-26T06:51:46;98666.00;;;0.70
8362;BMP180;4218;48.326;14.304;2023-01-26T06:54:13;98675.00;;;0.80
8362;BMP180;4218;48.326;14.304;2023-01-26T06:56:40;98658.00;;;0.80
8362;BMP180;4218;48.326;14.304;2023-01-26T06:59:09;98678.00;;;0.90
8362;BMP180;4218;48.326;14.304;2023-01-26T07:01:44;98665.00;;;0.80
8362;BMP180;4218;48.326;14.304;2023-01-26T07:04:13;98684.00;;;0.80
8362;BMP180;4218;48.326;14.304;2023-01-26T07:06:39;98668.00;;;0.80
8362;BMP180;4218;48.326;14.304;2023-01-26T07:09:05;98665.00;;;0.80
8362;BMP180;4218;48.326;14.304;2023-01-26T07:11:30;98680.00;;;0.80
8362;BMP180;4218;48.326;14.304;2023-01-26T07:13:57;98671.00;;;0.80
8362;BMP180;4218;48.326;14.304;2023-01-26T07:16:26;98654.00;;;0.80
8362;BMP180;4218;48.326;14.304;2023-01-26T07:18:53;98665.00;;;0.80
8362;BMP180;4218;48.326;14.304;2023-01-26T07:21:21;98659.00;;;0.80
8362;BMP180;4218;48.326;14.304;2023-01-26T07:23:47;98660.00;;;0.90
8362;BMP180;4218;48.326;14.304;2023-01-26T07:26:14;98659.00;;;0.90
8362;BMP180;4218;48.326;14.304;2023-01-26T07:28:40;98666.00;;;1.00
8362;BMP180;4218;48.326;14.304;2023-01-26T07:31:06;98666.00;;;0.90
8362;BMP180;4218;48.326;14.304;2023-01-26T07:33:33;98660.00;;;0.90
8362;BMP180;4218;48.326;14.304;2023-01-26T07:36:00;98656.00;;;0.80
8362;BMP180;4218;48.326;14.304;2023-01-26T07:38:26;98650.00;;;0.70
8362;BMP180;4218;48.326;14.304;2023-01-26T07:40:53;98655.00;;;0.70
8362;BMP180;4218;48.326;14.304;2023-01-26T07:43:19;98649.00;;;0.70
8362;BMP180;4218;48.326;14.304;2023-01-26T07:45:45;98656.00;;;0.70
8362;BMP180;4218;48.326;14.304;2023-01-26T07:48:11;98647.00;;;0.70
8362;BMP180;4218;48.326;14.304;2023-01-26T07:50:36;98653.00;;;0.80
8362;BMP180;4218;48.326;14.304;2023-01-26T07:53:05;98643.00;;;0.80
8362;BMP180;4218;48.326;14.304;2023-01-26T07:55:34;98655.00;;;0.70
8362;BMP180;4218;48.326;14.304;2023-01-26T07:57:59;98652.00;;;0.70
8362;BMP180;4218;48.326;14.304;2023-01-26T08:00:25;98651.00;;;0.70
8362;BMP180;4218;48.326;14.304;2023-01-26T08:02:55;98653.00;;;0.60
8362;BMP180;4218;48.326;14.304;2023-01-26T08:05:20;98642.00;;;0.60
8362;BMP180;4218;48.326;14.304;2023-01-26T08:07:46;98654.00;;;0.70
8362;BMP180;4218;48.326;14.304;2023-01-26T08:10:12;98649.00;;;0.70
8362;BMP180;4218;48.326;14.304;2023-01-26T08:12:38;98644.00;;;0.60
8362;BMP180;4218;48.326;14.304;2023-01-26T08:15:04;98645.00;;;0.70
8362;BMP180;4218;48.326;14.304;2023-01-26T08:17:32;98661.00;;;0.70
8362;BMP180;4218;48.326;14.304;2023-01-26T08:19:59;98647.00;;;0.90
8362;BMP180;4218;48.326;14.304;2023-01-26T08:22:24;98656.00;;;0.80
8362;BMP180;4218;48.326;14.304;2023-01-26T08:24:50;98657.00;;;0.90
8362;BMP180;4218;48.326;14.304;2023-01-26T08:27:15;98636.00;;;0.70
8362;BMP180;4218;48.326;14.304;2023-01-26T08:29:41;98645.00;;;0.80
8362;BMP180;4218;48.326;14.304;2023-01-26T08:32:07;98659.00;;;0.70
8362;BMP180;4218;48.326;14.304;2023-01-26T08:34:33;98643.00;;;0.70
8362;BMP180;4218;48.326;14.304;2023-01-26T08:37:01;98638.00;;;0.70
8362;BMP180;4218;48.326;14.304;2023-01-26T08:39:27;98641.00;;;0.70
8362;BMP180;4218;48.326;14.304;2023-01-26T08:41:53;98645.00;;;0.70
8362;BMP180;4218;48.326;14.304;2023-01-26T08:44:18;98639.00;;;0.70
8362;BMP180;4218;48.326;14.304;2023-01-26T08:46:44;98650.00;;;0.70
8362;BMP180;4218;48.326;14.304;2023-01-26T08:49:09;98642.00;;;0.70
8362;BMP180;4218;48.326;14.304;2023-01-26T08:51:35;98639.00;;;0.70
8362;BMP180;4218;48.326;14.304;2023-01-26T08:54:00;98630.00;;;0.70
8362;BMP180;4218;48.326;14.304;2023-01-26T08:56:27;98631.00;;;0.70
8362;BMP180;4218;48.326;14.304;2023-01-26T08:58:52;98633.00;;;0.80
8362;BMP180;4218;48.326;14.304;2023-01-26T09:01:18;98636.00;;;0.90
8362;BMP180;4218;48.326;14.304;2023-01-26T09:03:43;98627.00;;;1.00
8362;BMP180;4218;48.326;14.304;2023-01-26T09:06:11;98644.00;;;1.20
8362;BMP180;4218;48.326;14.304;2023-01-26T09:08:37;98635.00;;;1.10
8362;BMP180;4218;48.326;14.304;2023-01-26T09:11:06;98641.00;;;1.20
8362;BMP180;4218;48.326;14.304;2023-01-26T09:13:32;98632.00;;;1.20
8362;BMP180;4218;48.326;14.304;2023-01-26T09:15:57;98629.00;;;1.20
8362;BMP180;4218;48.326;14.304;2023-01-26T09:18:23;98628.00;;;0.90
8362;BMP180;4218;48.326;14.304;2023-01-26T09:20:48;98638.00;;;0.70
8362;BMP180;4218;48.326;14.304;2023-01-26T09:23:15;98630.00;;;0.80
8362;BMP180;4218;48.326;14.304;2023-01-26T09:25:42;98626.00;;;0.80
8362;BMP180;4218;48.326;14.304;2023-01-26T09:28:11;98626.00;;;0.70
8362;BMP180;4218;48.326;14.304;2023-01-26T09:30:36;98648.00;;;0.50
8362;BMP180;4218;48.326;14.304;2023-01-26T09:33:03;98628.00;;;0.50
8362;BMP180;4218;48.326;14.304;2023-01-26T09:35:30;98642.00;;;0.60
8362;BMP180;4218;48.326;14.304;2023-01-26T09:37:55;98627.00;;;0.70
8362;BMP180;4218;48.326;14.304;2023-01-26T09:40:36;98634.00;;;0.70
8362;BMP180;4218;48.326;14.304;2023-01-26T09:45:42;98628.00;;;0.80
8362;BMP180;4218;48.326;14.304;2023-01-26T09:51:02;98643.00;;;1.00
8362;BMP180;4218;48.326;14.304;2023-01-26T09:53:43;98644.00;;;1.20
8362;BMP180;4218;48.326;14.304;2023-01-26T09:56:19;98646.00;;;0.90
8362;BMP180;4218;48.326;14.304;2023-01-26T09:58:50;98616.00;;;0.90
8362;BMP180;4218;48.326;14.304;2023-01-26T10:01:28;98623.00;;;0.80
8362;BMP180;4218;48.326;14.304;2023-01-26T10:06:28;98604.00;;;0.90
8362;BMP180;4218;48.326;14.304;2023-01-26T10:08:59;98626.00;;;0.80
8362;BMP180;4218;48.326;14.304;2023-01-26T10:13:58;98603.00;;;0.60
8362;BMP180;4218;48.326;14.304;2023-01-26T10:16:25;98626.00;;;0.70
8362;BMP180;4218;48.326;14.304;2023-01-26T10:19:04;98618.00;;;0.50
8362;BMP180;4218;48.326;14.304;2023-01-26T10:21:35;98615.00;;;0.50
8362;BMP180;4218;48.326;14.304;2023-01-26T10:24:04;98627.00;;;0.50
8362;BMP180;4218;48.326;14.304;2023-01-26T10:26:32;98620.00;;;0.40
8362;BMP180;4218;48.326;14.304;2023-01-26T10:28:58;98616.00;;;0.50
8362;BMP180;4218;48.326;14.304;2023-01-26T10:31:26;98599.00;;;0.50
8362;BMP180;4218;48.326;14.304;2023-01-26T10:37:00;98595.00;;;0.40
8362;BMP180;4218;48.326;14.304;2023-01-26T10:39:30;98612.00;;;0.20
8362;BMP180;4218;48.326;14.304;2023-01-26T10:41:57;98616.00;;;0.30
8362;BMP180;4218;48.326;14.304;2023-01-26T10:49:30;98600.00;;;0.40
8362;BMP180;4218;48.326;14.304;2023-01-26T10:52:10;98603.00;;;0.40
8362;BMP180;4218;48.326;14.304;2023-01-26T10:54:38;98591.00;;;0.30
8362;BMP180;4218;48.326;14.304;2023-01-26T10:59:48;98581.00;;;0.40
8362;BMP180;4218;48.326;14.304;2023-01-26T11:02:29;98593.00;;;0.60
8362;BMP180;4218;48.326;14.304;2023-01-26T11:07:40;98587.00;;;0.60
8362;BMP180;4218;48.326;14.304;2023-01-26T11:10:52;98590.00;;;0.20
8362;BMP180;4218;48.326;14.304;2023-01-26T11:15:44;98584.00;;;0.10
8362;BMP180;4218;48.326;14.304;2023-01-26T11:18:22;98579.00;;;0.10
8362;BMP180;4218;48.326;14.304;2023-01-26T11:21:00;98581.00;;;0.10
8362;BMP180;4218;48.326;14.304;2023-01-26T11:23:38;98582.00;;;0.10
8362;BMP180;4218;48.326;14.304;2023-01-26T11:29:01;98569.00;;;0.10
8362;BMP180;4218;48.326;14.304;2023-01-26T11:46:03;98563.00;;;0.80
8362;BMP180;4218;48.326;14.304;2023-01-26T11:48:38;98558.00;;;0.80
8362;BMP180;4218;48.326;14.304;2023-01-26T12:00:18;98540.00;;;0.90
8362;BMP180;4218;48.326;14.304;2023-01-26T12:02:53;98529.00;;;1.20
8362;BMP180;4218;48.326;14.304;2023-01-26T12:05:26;98512.00;;;1.30
8362;BMP180;4218;48.326;14.304;2023-01-26T12:07:56;98535.00;;;1.20
8362;BMP180;4218;48.326;14.304;2023-01-26T12:10:29;98506.00;;;1.00
8362;BMP180;4218;48.326;14.304;2023-01-26T12:13:15;98517.00;;;0.90
8362;BMP180;4218;48.326;14.304;2023-01-26T12:15:47;98504.00;;;1.10
8362;BMP180;4218;48.326;14.304;2023-01-26T12:18:22;98509.00;;;0.80
8362;BMP180;4218;48.326;14.304;2023-01-26T12:20:54;98519.00;;;0.50
8362;BMP180;4218;48.326;14.304;2023-01-26T12:23:50;98511.00;;;0.40
8362;BMP180;4218;48.326;14.304;2023-01-26T12:26:23;98505.00;;;0.50
8362;BMP180;4218;48.326;14.304;2023-01-26T12:29:21;98503.00;;;0.60
8362;BMP180;4218;48.326;14.304;2023-01-26T12:32:02;98495.00;;;0.90
8362;BMP180;4218;48.326;14.304;2023-01-26T12:34:31;98510.00;;;1.00
8362;BMP180;4218;48.326;14.304;2023-01-26T12:45:33;98485.00;;;1.20
8362;BMP180;4218;48.326;14.304;2023-01-26T12:48:20;98498.00;;;1.00
8362;BMP180;4218;48.326;14.304;2023-01-26T12:50:53;98481.00;;;1.00
8362;BMP180;4218;48.326;14.304;2023-01-26T12:53:26;98490.00;;;1.20
8362;BMP180;4218;48.326;14.304;2023-01-26T12:56:12;98492.00;;;1.00
8362;BMP180;4218;48.326;14.304;2023-01-26T12:58:43;98491.00;;;1.10
8362;BMP180;4218;48.326;14.304;2023-01-26T13:01:11;98481.00;;;0.90
8362;BMP180;4218;48.326;14.304;2023-01-26T13:29:56;98492.00;;;1.00
8362;BMP180;4218;48.326;14.304;2023-01-26T13:34:54;98492.00;;;1.00
8362;BMP180;4218;48.326;14.304;2023-01-26T13:40:33;98497.00;;;1.00
8362;BMP180;4218;48.326;14.304;2023-01-26T13:48:42;98497.00;;;0.90
8362;BMP180;4218;48.326;14.304;2023-01-26T13:51:12;98484.00;;;0.90
8362;BMP180;4218;48.326;14.304;2023-01-26T13:54:13;98503.00;;;0.90
8362;BMP180;4218;48.326;14.304;2023-01-26T13:56:41;98494.00;;;0.90
8362;BMP180;4218;48.326;14.304;2023-01-26T13:59:15;98490.00;;;0.70
8362;BMP180;4218;48.326;14.304;2023-01-26T14:01:48;98499.00;;;0.90
8362;BMP180;4218;48.326;14.304;2023-01-26T14:06:52;98502.00;;;1.10
8362;BMP180;4218;48.326;14.304;2023-01-26T14:09:22;98483.00;;;1.00
8362;BMP180;4218;48.326;14.304;2023-01-26T14:11:57;98497.00;;;0.90
8362;BMP180;4218;48.326;14.304;2023-01-26T14:14:28;98496.00;;;0.80
8362;BMP180;4218;48.326;14.304;2023-01-26T14:16:56;98478.00;;;0.70
8362;BMP180;4218;48.326;14.304;2023-01-26T14:19:22;98480.00;;;0.70
8362;BMP180;4218;48.326;14.304;2023-01-26T14:21:57;98495.00;;;0.70
8362;BMP180;4218;48.326;14.304;2023-01-26T14:24:35;98510.00;;;0.80
8362;BMP180;4218;48.326;14.304;2023-01-26T14:27:04;98498.00;;;0.80
8362;BMP180;4218;48.326;14.304;2023-01-26T14:29:36;98496.00;;;1.00
8362;BMP180;4218;48.326;14.304;2023-01-26T14:32:03;98493.00;;;1.00
8362;BMP180;4218;48.326;14.304;2023-01-26T14:34:29;98487.00;;;0.90
8362;BMP180;4218;48.326;14.304;2023-01-26T14:39:31;98490.00;;;0.80
8362;BMP180;4218;48.326;14.304;2023-01-26T14:41:58;98492.00;;;0.90
8362;BMP180;4218;48.326;14.304;2023-01-26T14:44:24;98506.00;;;0.90
8362;BMP180;4218;48.326;14.304;2023-01-26T14:49:34;98489.00;;;0.90
8362;BMP180;4218;48.326;14.304;2023-01-26T14:52:26;98490.00;;;0.90
8362;BMP180;4218;48.326;14.304;2023-01-26T14:55:02;98491.00;;;1.00
8362;BMP180;4218;48.326;14.304;2023-01-26T14:57:29;98500.00;;;1.00
8362;BMP180;4218;48.326;14.304;2023-01-26T14:59:57;98499.00;;;1.00
8362;BMP180;4218;48.326;14.304;2023-01-26T15:02:34;98508.00;;;1.00
8362;BMP180;4218;48.326;14.304;2023-01-26T15:07:42;98505.00;;;0.80
8362;BMP180;4218;48.326;14.304;2023-01-26T15:10:32;98501.00;;;0.80
8362;BMP180;4218;48.326;14.304;2023-01-26T15:13:22;98501.00;;;0.80
8362;BMP180;4218;48.326;14.304;2023-01-26T15:16:04;98510.00;;;0.70
8362;BMP180;4218;48.326;14.304;2023-01-26T15:18:33;98495.00;;;0.70
8362;BMP180;4218;48.326;14.304;2023-01-26T15:23:33;98508.00;;;0.70
8362;BMP180;4218;48.326;14.304;2023-01-26T15:26:29;98496.00;;;0.80
8362;BMP180;4218;48.326;14.304;2023-01-26T15:28:54;98504.00;;;0.90
8362;BMP180;4218;48.326;14.304;2023-01-26T15:31:32;98510.00;;;0.80
8362;BMP180;4218;48.326;14.304;2023-01-26T15:33:58;98492.00;;;0.80
8362;BMP180;4218;48.326;14.304;2023-01-26T15:36:30;98510.00;;;0.70
8362;BMP180;4218;48.326;14.304;2023-01-26T15:39:09;98508.00;;;0.60
8362;BMP180;4218;48.326;14.304;2023-01-26T15:41:36;98509.00;;;0.50
8362;BMP180;4218;48.326;14.304;2023-01-26T15:44:01;98503.00;;;0.50
8362;BMP180;4218;48.326;14.304;2023-01-26T15:46:26;98517.00;;;0.50
8362;BMP180;4218;48.326;14.304;2023-01-26T15:48:52;98505.00;;;0.70
8362;BMP180;4218;48.326;14.304;2023-01-26T15:51:17;98500.00;;;0.60
8362;BMP180;4218;48.326;14.304;2023-01-26T15:53:43;98502.00;;;0.60
8362;BMP180;4218;48.326;14.304;2023-01-26T15:56:14;98499.00;;;0.50
8362;BMP180;4218;48.326;14.304;2023-01-26T15:58:40;98501.00;;;0.50
8362;BMP180;4218;48.326;14.304;2023-01-26T16:01:13;98505.00;;;0.50
8362;BMP180;4218;48.326;14.304;2023-01-26T16:03:40;98511.00;;;0.50
8362;BMP180;4218;48.326;14.304;2023-01-26T16:06:11;98502.00;;;0.60
8362;BMP180;4218;48.326;14.304;2023-01-26T16:08:38;98503.00;;;0.50
8362;BMP180;4218;48.326;14.304;2023-01-26T16:11:09;98519.00;;;0.50
8362;BMP180;4218;48.326;14.304;2023-01-26T16:13:36;98514.00;;;0.50
8362;BMP180;4218;48.326;14.304;2023-01-26T16:16:02;98531.00;;;0.50
8362;BMP180;4218;48.326;14.304;2023-01-26T16:18:27;98514.00;;;0.50
8362;BMP180;4218;48.326;14.304;2023-01-26T16:20:53;98520.00;;;0.50
8362;BMP180;4218;48.326;14.304;2023-01-26T16:23:23;98509.00;;;0.50
8362;BMP180;4218;48.326;14.304;2023-01-26T16:25:51;98507.00;;;0.40
8362;BMP180;4218;48.326;14.304;2023-01-26T16:28:17;98525.00;;;0.40
8362;BMP180;4218;48.326;14.304;2023-01-26T16:30:44;98511.00;;;0.40
8362;BMP180;4218;48.326;14.304;2023-01-26T16:33:16;98524.00;;;0.50
8362;BMP180;4218;48.326;14.304;2023-01-26T16:35:46;98500.00;;;0.70
8362;BMP180;4218;48.326;14.304;2023-01-26T16:38:12;98526.00;;;0.60
8362;BMP180;4218;48.326;14.304;2023-01-26T16:40:46;98524.00;;;0.60
8362;BMP180;4218;48.326;14.304;2023-01-26T16:43:17;98535.00;;;0.60
8362;BMP180;4218;48.326;14.304;2023-01-26T16:45:43;98513.00;;;0.50
8362;BMP180;4218;48.326;14.304;2023-01-26T16:48:13;98524.00;;;0.50
8362;BMP180;4218;48.326;14.304;2023-01-26T16:50:40;98523.00;;;0.60
8362;BMP180;4218;48.326;14.304;2023-01-26T16:53:17;98521.00;;;0.60